Time;durP1;ratioP1;P1;durP2;ratioP2;P2;SDS_P1;SDS_P2;PMS_P1;PMS_P2;Temp;Humidity;BMP_temperature;BMP_pressure;BME280_temperature;BME280_humidity;BME280_pressure;Samples;Min_cycle;Max_cycle;Signal;HPM_P1;HPM_P2
2021/03/10 00:00:18;;;;;;;;;;;;;;;21.95;23.11;98136.66;5062904;28;1109;-77
2021/03/10 00:02:44;;;;;;;;;;;;;;;22.17;22.65;98130.47;5062944;28;1906;-77
2021/03/10 00:05:09;;;;;;;;;;;;;;;22.48;22.31;98128.78;5063332;28;614;-76
2021/03/10 00:07:35;;;;;;;;;;;;;;;22.61;22.21;98123.16;5078467;28;798;-77
2021/03/10 00:10:00;;;;;;;;;;;;;;;22.28;22.35;98128.94;5063120;28;671;-77
2021/03/10 00:12:26;;;;;;;;;;;;;;;22.12;22.83;98128.97;5079249;28;665;-77
2021/03/10 00:14:52;;;;;;;;;;;;;;;21.73;23.24;98125.09;5062973;28;640;-76
2021/03/10 00:17:17;;;;;;;;;;;;;;;21.87;23.05;98123.94;5062611;28;1097;-77
2021/03/10 00:19:43;;;;;;;;;;;;;;;22.30;22.66;98120.78;5062984;28;842;-77
2021/03/10 00:22:08;;;;;;;;;;;;;;;22.55;22.08;98117.25;5078891;28;1974;-77
2021/03/10 00:24:34;;;;;;;;;;;;;;;22.69;22.20;98104.72;5062653;28;644;-76
2021/03/10 00:26:59;;;;;;;;;;;;;;;21.87;22.91;98111.81;5062961;28;737;-77
2021/03/10 00:29:25;;;;;;;;;;;;;;;21.74;23.24;98111.72;5062664;28;690;-77
2021/03/10 00:31:51;;;;;;;;;;;;;;;21.81;23.15;98109.50;5078104;28;861;-77
2021/03/10 00:34:16;;;;;;;;;;;;;;;22.01;23.18;98114.25;5062376;28;948;-77
2021/03/10 00:36:42;;;;;;;;;;;;;;;22.44;22.24;98111.09;5062768;28;926;-77
2021/03/10 00:39:07;;;;;;;;;;;;;;;22.51;22.38;98108.03;5062483;28;663;-77
2021/03/10 00:41:33;;;;;;;;;;;;;;;21.95;22.85;98107.53;5062743;28;1907;-77
2021/03/10 00:43:58;;;;;;;;;;;;;;;21.83;23.11;98112.69;5062410;28;630;-77
2021/03/10 00:46:24;;;;;;;;;;;;;;;21.62;23.19;98099.06;5062176;28;991;-77
2021/03/10 00:48:49;;;;;;;;;;;;;;;22.04;22.88;98093.53;5062027;28;825;-77
2021/03/10 00:51:15;;;;;;;;;;;;;;;22.31;22.41;98091.19;5062109;28;877;-77
2021/03/10 00:53:41;;;;;;;;;;;;;;;22.38;22.64;98083.72;5061953;28;643;-77
2021/03/10 00:56:07;;;;;;;;;;;;;;;21.97;22.74;98082.41;5062273;28;921;-77
2021/03/10 00:58:32;;;;;;;;;;;;;;;21.83;23.24;98078.69;5062443;28;639;-77
2021/03/10 01:00:58;;;;;;;;;;;;;;;21.81;23.30;98081.19;5061751;28;1953;-77
2021/03/10 01:03:23;;;;;;;;;;;;;;;22.32;22.72;98078.59;5061608;28;889;-77
2021/03/10 01:05:49;;;;;;;;;;;;;;;22.40;22.49;98069.91;5062301;28;887;-77
2021/03/10 01:08:14;;;;;;;;;;;;;;;22.63;22.22;98067.56;5061883;28;607;-77
2021/03/10 01:10:40;;;;;;;;;;;;;;;22.15;22.44;98065.72;5062121;28;595;-77
2021/03/10 01:13:05;;;;;;;;;;;;;;;21.54;23.33;98066.50;5061485;28;1093;-77
2021/03/10 01:15:49;;;;;;;;;;;;;;;21.75;23.09;98065.94;5062029;28;978;-77
2021/03/10 01:18:21;;;;;;;;;;;;;;;21.74;23.55;98070.03;5061723;28;619;-77
2021/03/10 01:20:47;;;;;;;;;;;;;;;22.03;22.92;98060.78;5061819;28;1967;-77
2021/03/10 01:23:12;;;;;;;;;;;;;;;22.35;22.33;98063.53;5061578;28;610;-77
2021/03/10 01:25:37;;;;;;;;;;;;;;;22.43;22.45;98063.31;5061998;28;629;-76
2021/03/10 01:28:03;;;;;;;;;;;;;;;22.09;22.66;98056.16;5061278;28;1058;-77
2021/03/10 01:30:29;;;;;;;;;;;;;;;21.83;23.33;98064.53;5061401;28;898;-76
2021/03/10 01:32:56;;;;;;;;;;;;;;;21.74;23.24;98058.69;5061504;28;877;-77
2021/03/10 01:35:21;;;;;;;;;;;;;;;21.84;23.28;98040.63;5061579;28;689;-77
2021/03/10 01:37:47;;;;;;;;;;;;;;;22.09;22.85;98045.63;5061395;28;570;-76
2021/03/10 01:40:13;;;;;;;;;;;;;;;22.26;22.61;98037.88;5061264;28;920;-77
2021/03/10 01:42:38;;;;;;;;;;;;;;;22.63;22.36;98038.41;5061120;28;1906;-77
2021/03/10 01:45:05;;;;;;;;;;;;;;;22.28;22.65;98035.41;5060937;28;941;-77
2021/03/10 01:47:30;;;;;;;;;;;;;;;22.12;22.75;98034.66;5061312;28;848;-76
2021/03/10 01:49:55;;;;;;;;;;;;;;;21.65;23.41;98033.03;5077154;28;745;-77
2021/03/10 01:52:21;;;;;;;;;;;;;;;21.90;23.36;98026.72;5061255;28;733;-77
2021/03/10 01:54:46;;;;;;;;;;;;;;;22.32;22.58;98027.56;5061082;28;686;-76
2021/03/10 01:57:12;;;;;;;;;;;;;;;22.48;22.25;98031.56;5061194;28;961;-77
2021/03/10 01:59:38;;;;;;;;;;;;;;;22.55;22.24;98032.19;5060567;28;1097;-77
2021/03/10 02:02:03;;;;;;;;;;;;;;;22.00;23.00;98025.63;5076351;28;1902;-77
2021/03/10 02:04:31;;;;;;;;;;;;;;;21.97;22.97;98025.75;5060930;28;599;-77
2021/03/10 02:06:57;;;;;;;;;;;;;;;21.74;23.59;98024.72;5061118;28;633;-77
2021/03/10 02:09:25;;;;;;;;;;;;;;;21.85;23.46;98025.22;5060712;28;658;-77
2021/03/10 02:11:52;;;;;;;;;;;;;;;22.28;22.79;98018.41;5076491;28;902;-76
2021/03/10 02:14:21;;;;;;;;;;;;;;;22.61;22.32;98007.69;5060496;28;857;-77
2021/03/10 02:16:49;;;;;;;;;;;;;;;22.65;22.00;98007.56;5061178;28;813;-77
2021/03/10 02:19:15;;;;;;;;;;;;;;;22.01;23.00;98003.75;5075888;28;766;-76
2021/03/10 02:21:46;;;;;;;;;;;;;;;21.83;23.28;97999.38;5060782;28;1977;-77
2021/03/10 02:24:41;;;;;;;;;;;;;;;21.81;23.43;98001.88;5060423;28;839;-77
2021/03/10 02:27:45;;;;;;;;;;;;;;;21.99;23.36;97994.91;5047335;28;1035;-77
2021/03/10 02:30:12;;;;;;;;;;;;;;;22.26;22.83;98003.88;4999729;28;1145;-77
2021/03/10 02:32:38;;;;;;;;;;;;;;;22.48;22.54;98008.91;4999840;28;826;-77
2021/03/10 02:35:04;;;;;;;;;;;;;;;22.06;22.91;98006.03;5028631;28;879;-76
2021/03/10 02:37:29;;;;;;;;;;;;;;;21.71;23.46;98002.97;5060436;28;646;-77
2021/03/10 02:39:55;;;;;;;;;;;;;;;21.67;23.68;98013.59;5076340;28;654;-77
2021/03/10 02:42:20;;;;;;;;;;;;;;;22.09;23.19;98000.28;5060584;28;1902;-77
2021/03/10 02:44:46;;;;;;;;;;;;;;;22.41;22.75;98003.44;5075970;28;863;-77
2021/03/10 02:47:11;;;;;;;;;;;;;;;22.50;22.80;98007.22;5076512;28;817;-77
2021/03/10 02:49:37;;;;;;;;;;;;;;;22.23;22.58;97999.13;5075974;28;844;-76
2021/03/10 02:52:02;;;;;;;;;;;;;;;21.93;23.13;98008.84;5076090;28;815;-76
2021/03/10 02:54:28;;;;;;;;;;;;;;;21.72;23.51;97998.88;5075711;28;837;-77
2021/03/10 02:56:53;;;;;;;;;;;;;;;21.65;23.71;97999.06;5060415;28;1024;-77
2021/03/10 02:59:19;;;;;;;;;;;;;;;22.14;22.93;97996.13;5059576;28;1027;-77
2021/03/10 03:01:44;;;;;;;;;;;;;;;22.39;22.83;97989.72;5076051;28;1918;-77
2021/03/10 03:04:10;;;;;;;;;;;;;;;22.46;22.48;97988.72;5060243;28;745;-76
2021/03/10 03:06:35;;;;;;;;;;;;;;;22.21;22.58;97984.56;5060358;28;587;-76
2021/03/10 03:09:01;;;;;;;;;;;;;;;21.87;23.39;97985.13;5059591;28;946;-77
2021/03/10 03:11:26;;;;;;;;;;;;;;;21.87;23.09;97976.63;5059955;28;881;-76
2021/03/10 03:13:52;;;;;;;;;;;;;;;21.94;23.11;97975.63;5076509;28;991;-77
2021/03/10 03:16:18;;;;;;;;;;;;;;;22.20;22.99;97987.88;5079869;28;903;-77
2021/03/10 03:18:43;;;;;;;;;;;;;;;22.34;23.01;97981.78;5063996;28;678;-77
2021/03/10 03:21:09;;;;;;;;;;;;;;;22.02;22.90;97982.66;5064185;28;1980;-77
2021/03/10 03:23:34;;;;;;;;;;;;;;;21.74;23.28;97981.44;5079380;28;934;-77
2021/03/10 03:25:59;;;;;;;;;;;;;;;21.73;23.68;97983.47;5080087;28;891;-77
2021/03/10 03:28:25;;;;;;;;;;;;;;;21.95;23.45;97980.06;5079587;28;849;-78
2021/03/10 03:30:52;;;;;;;;;;;;;;;22.23;22.94;97979.28;5064031;28;639;-77
2021/03/10 03:33:18;;;;;;;;;;;;;;;20.83;22.62;97715.50;5063795;28;594;-77
2021/03/10 03:35:44;;;;;;;;;;;;;;;22.49;22.23;97976.47;5064224;28;674;-77
2021/03/10 03:38:10;;;;;;;;;;;;;;;21.90;23.16;97969.28;5063588;28;984;-77
2021/03/10 03:40:35;;;;;;;;;;;;;;;21.50;23.62;97981.69;5063457;28;892;-76
2021/03/10 03:43:01;;;;;;;;;;;;;;;21.80;23.71;97980.44;5063550;28;1980;-77
2021/03/10 03:45:26;;;;;;;;;;;;;;;21.74;23.55;97979.41;5079765;28;701;-76
2021/03/10 03:47:55;;;;;;;;;;;;;;;21.59;23.95;97969.72;5063871;28;745;-77
2021/03/10 03:50:21;;;;;;;;;;;;;;;21.66;23.79;97971.53;5063540;28;660;-77
2021/03/10 03:52:48;;;;;;;;;;;;;;;22.25;22.86;97978.81;5079160;28;867;-77
2021/03/10 03:55:13;;;;;;;;;;;;;;;22.38;22.85;97976.00;5063094;28;851;-77
2021/03/10 03:57:39;;;;;;;;;;;;;;;22.61;22.63;97978.53;5063437;28;1030;-77
2021/03/10 04:00:05;;;;;;;;;;;;;;;22.02;23.33;97974.16;5078685;28;1068;-78
2021/03/10 04:02:37;;;;;;;;;;;;;;;21.82;23.39;97975.16;5078430;28;1886;-77
2021/03/10 04:05:02;;;;;;;;;;;;;;;21.78;23.71;97974.44;5078654;28;829;-77
2021/03/10 04:07:28;;;;;;;;;;;;;;;22.20;23.03;97977.31;5063198;28;1064;-77
2021/03/10 04:09:53;;;;;;;;;;;;;;;22.34;22.71;97976.13;5062855;28;905;-77
2021/03/10 04:12:19;;;;;;;;;;;;;;;22.59;22.51;97975.38;5062866;28;1080;-76
2021/03/10 04:14:44;;;;;;;;;;;;;;;22.06;23.16;97969.19;5067615;28;1241;-76
2021/03/10 04:17:12;;;;;;;;;;;;;;;21.70;23.44;97973.03;5052926;28;1217;-77
2021/03/10 04:19:38;;;;;;;;;;;;;;;21.75;23.38;97971.69;5069374;28;1236;-78
2021/03/10 04:22:04;;;;;;;;;;;;;;;21.90;23.53;97963.59;5051158;28;1973;-77
2021/03/10 04:24:29;;;;;;;;;;;;;;;21.55;23.77;97963.34;5052329;28;1260;-77
2021/03/10 04:26:55;;;;;;;;;;;;;;;22.09;23.39;97954.16;5067123;28;1221;-77
2021/03/10 04:29:20;;;;;;;;;;;;;;;22.30;22.94;97947.06;5051481;28;1304;-77
2021/03/10 04:31:46;;;;;;;;;;;;;;;22.47;22.60;97944.94;5054240;28;1173;-77
2021/03/10 04:34:11;;;;;;;;;;;;;;;22.18;23.04;97945.81;5048437;28;1241;-77
2021/03/10 04:36:37;;;;;;;;;;;;;;;21.98;23.47;97939.50;5058395;28;690;-77
2021/03/10 04:39:02;;;;;;;;;;;;;;;21.87;23.53;97936.19;5042721;28;738;-76
2021/03/10 04:41:28;;;;;;;;;;;;;;;21.90;23.61;97940.94;5041974;28;1894;-76
2021/03/10 04:43:54;;;;;;;;;;;;;;;22.32;22.93;97934.03;5042009;28;865;-77
2021/03/10 04:46:22;;;;;;;;;;;;;;;22.49;22.81;97926.25;5042552;28;922;-76
2021/03/10 04:48:58;;;;;;;;;;;;;;;22.42;22.95;97934.16;5042350;28;639;-75
2021/03/10 04:51:24;;;;;;;;;;;;;;;22.02;23.04;97928.84;5042200;28;676;-76
2021/03/10 04:53:50;;;;;;;;;;;;;;;21.69;23.62;97928.97;5042238;28;682;-77
2021/03/10 04:56:15;;;;;;;;;;;;;;;21.65;23.94;97931.09;5042616;28;926;-76
2021/03/10 04:58:40;;;;;;;;;;;;;;;22.20;23.42;97914.97;5041734;28;918;-77
2021/03/10 05:01:06;;;;;;;;;;;;;;;22.43;22.84;97905.34;5061546;28;1961;-77
2021/03/10 05:03:31;;;;;;;;;;;;;;;22.55;22.59;97912.28;5062069;28;625;-77
2021/03/10 05:05:57;;;;;;;;;;;;;;;22.25;22.70;97920.09;5062397;28;640;-77
2021/03/10 05:08:22;;;;;;;;;;;;;;;21.87;23.47;97919.19;5061757;28;666;-77
2021/03/10 05:10:48;;;;;;;;;;;;;;;21.63;23.62;97908.13;5062000;28;912;-77
2021/03/10 05:13:13;;;;;;;;;;;;;;;21.80;23.54;97903.97;5061475;28;911;-76
2021/03/10 05:15:39;;;;;;;;;;;;;;;21.61;24.02;97893.63;5061598;28;918;-76
2021/03/10 05:18:04;;;;;;;;;;;;;;;22.01;23.43;97891.22;5061883;28;672;-76
2021/03/10 05:20:30;;;;;;;;;;;;;;;22.49;22.56;97885.75;5061858;28;705;-78
2021/03/10 05:22:57;;;;;;;;;;;;;;;22.44;22.62;97894.81;5061693;28;1958;-77
2021/03/10 05:25:23;;;;;;;;;;;;;;;22.51;22.79;97894.59;5061295;28;1060;-76
2021/03/10 05:27:48;;;;;;;;;;;;;;;22.45;22.85;97890.75;5061553;28;841;-76
2021/03/10 05:30:14;;;;;;;;;;;;;;;21.85;23.39;97902.63;5061433;28;865;-77
2021/03/10 05:32:40;;;;;;;;;;;;;;;21.68;23.52;97901.91;5060930;28;857;-77
2021/03/10 05:35:06;;;;;;;;;;;;;;;21.36;24.41;97896.34;5061618;28;714;-76
2021/03/10 05:37:32;;;;;;;;;;;;;;;21.79;23.73;97908.06;5059810;28;611;-77
2021/03/10 05:39:57;;;;;;;;;;;;;;;21.71;23.67;97905.88;5043867;28;960;-77
2021/03/10 05:42:22;;;;;;;;;;;;;;;21.95;23.58;97903.56;5061234;28;1918;-77
2021/03/10 05:44:48;;;;;;;;;;;;;;;22.15;23.29;97911.91;5061029;28;990;-77
2021/03/10 05:47:14;;;;;;;;;;;;;;;22.38;22.76;97920.09;5043968;28;766;-77
2021/03/10 05:49:40;;;;;;;;;;;;;;;22.49;22.84;97914.09;5060190;28;2046;-78
2021/03/10 05:52:06;;;;;;;;;;;;;;;21.69;23.47;97916.84;5061310;28;623;-76
2021/03/10 05:54:31;;;;;;;;;;;;;;;21.90;23.52;97906.94;5060058;28;896;-77
2021/03/10 05:56:57;;;;;;;;;;;;;;;21.88;23.67;97917.94;5060876;28;831;-77
2021/03/10 05:59:27;;;;;;;;;;;;;;;22.07;23.40;97922.63;5098256;27;1164;-76
2021/03/10 06:01:53;;;;;;;;;;;;;;;22.17;23.10;97904.53;5097908;28;638;-76
2021/03/10 06:04:19;;;;;;;;;;;;;;;22.46;22.97;97915.00;5130978;27;665;-76
2021/03/10 06:06:44;;;;;;;;;;;;;;;22.56;22.81;97911.03;5121049;27;1159;-75
2021/03/10 06:09:17;;;;;;;;;;;;;;;22.11;23.13;97906.34;5096055;28;1173;-75
2021/03/10 06:12:12;;;;;;;;;;;;;;;21.73;23.71;97912.69;5103444;28;1192;-75
2021/03/10 06:14:37;;;;;;;;;;;;;;;21.73;23.58;97912.69;5091086;28;1359;-75
2021/03/10 06:17:03;;;;;;;;;;;;;;;21.98;23.35;97914.00;5096248;28;1978;-75
2021/03/10 06:19:29;;;;;;;;;;;;;;;22.24;23.14;97912.84;5096415;28;1189;-76
2021/03/10 06:21:54;;;;;;;;;;;;;;;22.27;22.96;97925.28;5095383;28;1225;-75
2021/03/10 06:24:20;;;;;;;;;;;;;;;22.49;22.93;97916.94;5095734;28;1126;-76
2021/03/10 06:26:46;;;;;;;;;;;;;;;22.10;23.14;97927.41;5095033;28;1236;-76
2021/03/10 06:29:15;;;;;;;;;;;;;;;22.00;23.11;97934.16;5120793;27;1216;-76
2021/03/10 06:31:42;;;;;;;;;;;;;;;21.68;23.67;97924.56;5120969;27;1247;-74
2021/03/10 06:34:08;;;;;;;;;;;;;;;21.71;23.93;97929.34;5095913;28;1165;-75
2021/03/10 06:36:44;;;;;;;;;;;;;;;22.12;23.23;97924.13;5092548;28;1102;-76
2021/03/10 06:39:22;;;;;;;;;;;;;;;22.34;23.00;97923.06;5094691;28;1930;-76
2021/03/10 06:41:48;;;;;;;;;;;;;;;22.39;23.06;97943.59;5095373;28;1169;-76
2021/03/10 06:44:22;;;;;;;;;;;;;;;21.86;23.57;97935.38;5095329;28;1260;-76
2021/03/10 06:47:04;;;;;;;;;;;;;;;21.57;23.97;97921.25;5097099;28;709;-76
2021/03/10 06:49:32;;;;;;;;;;;;;;;21.46;24.32;97938.50;5096929;28;670;-76
2021/03/10 06:51:58;;;;;;;;;;;;;;;21.68;23.63;97930.22;5095999;28;821;-76
2021/03/10 06:54:24;;;;;;;;;;;;;;;21.55;24.20;97926.53;5096443;28;827;-76
2021/03/10 06:57:09;;;;;;;;;;;;;;;22.02;23.29;97943.00;5096509;28;879;-76
2021/03/10 06:59:53;;;;;;;;;;;;;;;22.31;22.96;97935.28;5095983;28;658;-76
2021/03/10 07:02:29;;;;;;;;;;;;;;;22.42;23.04;97931.31;5095814;28;863;-76
2021/03/10 07:04:55;;;;;;;;;;;;;;;21.37;24.13;97927.03;5096062;28;655;-76
2021/03/10 07:07:21;;;;;;;;;;;;;;;21.96;23.38;97933.47;5096653;28;697;-76
2021/03/10 07:09:47;;;;;;;;;;;;;;;21.77;23.55;97938.88;5087780;28;942;-76
2021/03/10 07:12:13;;;;;;;;;;;;;;;22.16;23.29;97928.44;5081873;28;890;-76
2021/03/10 07:14:39;;;;;;;;;;;;;;;22.48;22.77;97924.63;5082783;28;884;-76
2021/03/10 07:17:08;;;;;;;;;;;;;;;22.58;22.67;97911.38;5082143;28;1911;-76
2021/03/10 07:19:33;;;;;;;;;;;;;;;22.36;22.69;97906.38;5082171;28;667;-76
2021/03/10 07:22:03;;;;;;;;;;;;;;;22.18;22.97;97905.34;5082912;28;630;-76
2021/03/10 07:24:31;;;;;;;;;;;;;;;21.81;23.76;97905.59;5082554;28;966;-76
2021/03/10 07:26:56;;;;;;;;;;;;;;;21.81;23.74;97899.09;5081815;28;879;-76
2021/03/10 07:29:21;;;;;;;;;;;;;;;22.17;23.33;97898.88;5082701;28;877;-76
2021/03/10 07:31:56;;;;;;;;;;;;;;;22.36;23.19;97906.38;5081945;28;674;-76
2021/03/10 07:34:25;;;;;;;;;;;;;;;22.55;22.58;97900.94;5082562;28;741;-76
2021/03/10 07:36:50;;;;;;;;;;;;;;;22.07;23.31;97899.94;5082527;28;702;-76
2021/03/10 07:39:23;;;;;;;;;;;;;;;21.66;23.84;97903.59;5081137;28;1914;-76
2021/03/10 07:41:49;;;;;;;;;;;;;;;21.68;23.99;97901.91;5082246;28;893;-77
2021/03/10 07:44:17;;;;;;;;;;;;;;;21.87;23.50;97899.38;5081180;28;872;-77
2021/03/10 07:47:01;;;;;;;;;;;;;;;22.16;23.37;97897.28;5082313;28;615;-76
2021/03/10 07:49:26;;;;;;;;;;;;;;;22.44;23.11;97906.97;5082145;28;546;-76
2021/03/10 07:52:02;;;;;;;;;;;;;;;22.51;22.62;97901.06;5082382;28;710;-76
2021/03/10 07:54:28;;;;;;;;;;;;;;;21.92;23.27;97899.59;5081941;28;881;-76
2021/03/10 07:57:10;;;;;;;;;;;;;;;21.93;23.47;97904.03;5082006;28;940;-77
2021/03/10 07:59:36;;;;;;;;;;;;;;;21.71;23.76;97894.53;5082071;28;671;-76
2021/03/10 08:02:08;;;;;;;;;;;;;;;22.13;23.36;97891.75;5082285;28;645;-76
2021/03/10 08:04:33;;;;;;;;;;;;;;;22.40;23.05;97888.47;5081920;28;832;-76
2021/03/10 08:06:59;;;;;;;;;;;;;;;22.55;22.58;97889.59;5081197;28;769;-76
2021/03/10 08:09:25;;;;;;;;;;;;;;;21.96;23.51;97888.16;5081626;28;986;-76
2021/03/10 08:12:09;;;;;;;;;;;;;;;21.73;23.62;97880.75;5081693;28;909;-76
2021/03/10 08:14:35;;;;;;;;;;;;;;;21.68;24.03;97884.91;5081801;28;950;-76
2021/03/10 08:17:07;;;;;;;;;;;;;;;22.16;23.36;97885.94;5081189;28;659;-76
2021/03/10 08:19:33;;;;;;;;;;;;;;;22.34;22.86;97879.75;5080688;28;884;-76
2021/03/10 08:21:58;;;;;;;;;;;;;;;22.51;22.89;97871.91;5080789;28;642;-77
2021/03/10 08:24:24;;;;;;;;;;;;;;;22.24;23.04;97870.31;5080640;28;935;-76
2021/03/10 08:26:59;;;;;;;;;;;;;;;22.02;23.35;97875.00;5080656;28;942;-76
2021/03/10 08:29:25;;;;;;;;;;;;;;;21.65;23.99;97868.81;5081389;28;820;-76
2021/03/10 08:31:51;;;;;;;;;;;;;;;21.88;23.58;97869.78;5081473;28;697;-77
2021/03/10 08:34:28;;;;;;;;;;;;;;;22.23;23.31;97867.94;5081484;28;646;-76
2021/03/10 08:36:53;;;;;;;;;;;;;;;22.36;23.02;97869.53;5081505;28;666;-75
2021/03/10 08:39:19;;;;;;;;;;;;;;;22.40;23.04;97865.78;5080811;28;1984;-77
2021/03/10 08:41:45;;;;;;;;;;;;;;;21.83;23.52;97866.25;5081124;28;858;-76
2021/03/10 08:44:11;;;;;;;;;;;;;;;21.70;23.91;97865.44;5080198;28;839;-77
2021/03/10 08:47:10;;;;;;;;;;;;;;;21.78;23.73;97869.66;5081251;28;682;-76
2021/03/10 08:49:36;;;;;;;;;;;;;;;22.09;23.47;97857.81;5081175;28;670;-76
2021/03/10 08:52:11;;;;;;;;;;;;;;;22.26;23.30;97850.81;5081103;28;726;-76
2021/03/10 08:54:44;;;;;;;;;;;;;;;22.50;22.76;97847.63;5063299;28;1306;-76
2021/03/10 08:57:10;;;;;;;;;;;;;;;22.02;23.53;97846.69;5080651;28;1905;-77
2021/03/10 08:59:35;;;;;;;;;;;;;;;21.84;23.52;97841.56;5064191;28;1162;-76
2021/03/10 09:02:01;;;;;;;;;;;;;;;21.63;23.92;97840.16;5081001;28;606;-76
2021/03/10 09:04:27;;;;;;;;;;;;;;;21.94;23.63;97839.66;5080802;28;667;-76
2021/03/10 09:06:57;;;;;;;;;;;;;;;22.12;23.60;97834.25;5063839;28;1204;-76
2021/03/10 09:09:23;;;;;;;;;;;;;;;22.36;23.10;97834.72;5080315;28;960;-76
2021/03/10 09:11:50;;;;;;;;;;;;;;;22.38;23.02;97837.09;5080037;28;1141;-76
2021/03/10 09:14:37;;;;;;;;;;;;;;;21.93;23.85;97827.53;5066455;28;1279;-75
2021/03/10 09:17:08;;;;;;;;;;;;;;;21.65;24.15;97829.16;5063551;28;1293;-76
2021/03/10 09:19:41;;;;;;;;;;;;;;;21.73;23.85;97829.78;5080564;28;662;-76
2021/03/10 09:22:15;;;;;;;;;;;;;;;21.62;24.14;97829.28;5080046;28;1329;-75
2021/03/10 09:25:02;;;;;;;;;;;;;;;22.06;23.59;97817.00;5062854;28;1399;-75
2021/03/10 09:27:29;;;;;;;;;;;;;;;22.50;23.14;97819.28;5079717;28;1380;-77
2021/03/10 09:29:56;;;;;;;;;;;;;;;22.56;22.91;97817.47;5063055;28;1303;-75
2021/03/10 09:32:22;;;;;;;;;;;;;;;22.03;23.46;97802.97;5080075;28;1319;-76
2021/03/10 09:34:48;;;;;;;;;;;;;;;21.84;23.56;97814.03;5080418;28;869;-76
2021/03/10 09:37:14;;;;;;;;;;;;;;;21.79;23.90;97806.09;5080511;28;1902;-76
2021/03/10 09:39:47;;;;;;;;;;;;;;;21.70;24.22;97794.63;5079742;28;1141;-76
2021/03/10 09:42:15;;;;;;;;;;;;;;;22.07;23.69;97792.28;5080184;28;958;-77
2021/03/10 09:44:49;;;;;;;;;;;;;;;22.53;23.18;97784.34;5079629;28;1189;-76
2021/03/10 09:47:21;;;;;;;;;;;;;;;22.52;22.95;97788.41;5063581;28;1295;-76
2021/03/10 09:49:55;;;;;;;;;;;;;;;22.02;23.54;97790.00;5079460;28;824;-76
2021/03/10 09:52:31;;;;;;;;;;;;;;;21.89;23.60;97792.84;5079369;28;895;-77
2021/03/10 09:54:57;;;;;;;;;;;;;;;21.36;24.29;97783.13;5062479;28;1393;-76
2021/03/10 09:57:28;;;;;;;;;;;;;;;21.79;23.89;97786.28;5078921;28;1949;-76
2021/03/10 09:59:57;;;;;;;;;;;;;;;22.28;23.60;97780.31;5079640;28;1400;-76
2021/03/10 10:02:24;;;;;;;;;;;;;;;22.53;22.89;97778.66;5080235;28;665;-76
2021/03/10 10:04:57;;;;;;;;;;;;;;;22.58;22.72;97772.41;5080296;28;642;-76
2021/03/10 10:07:23;;;;;;;;;;;;;;;22.04;23.45;97776.19;5080225;28;666;-76
2021/03/10 10:09:56;;;;;;;;;;;;;;;21.74;23.88;97769.84;5063802;28;1153;-75
2021/03/10 10:12:22;;;;;;;;;;;;;;;21.86;23.76;97776.75;5079967;28;856;-76
2021/03/10 10:15:01;;;;;;;;;;;;;;;22.01;23.51;97760.88;5064646;28;936;-76
2021/03/10 10:17:32;;;;;;;;;;;;;;;22.29;23.34;97764.09;5079481;28;1971;-76
2021/03/10 10:20:05;;;;;;;;;;;;;;;22.41;23.28;97756.81;5079392;28;1164;-76
2021/03/10 10:22:31;;;;;;;;;;;;;;;22.12;23.29;97754.91;5079481;28;1161;-76
2021/03/10 10:24:56;;;;;;;;;;;;;;;22.09;23.59;97752.97;5078706;28;1493;-76
2021/03/10 10:27:22;;;;;;;;;;;;;;;21.90;23.74;97754.78;5079130;28;1129;-76
2021/03/10 10:29:48;;;;;;;;;;;;;;;21.66;23.93;97756.34;5079191;28;1339;-76
2021/03/10 10:32:13;;;;;;;;;;;;;;;21.90;23.87;97751.16;5079087;28;1801;-76
2021/03/10 10:34:41;;;;;;;;;;;;;;;22.38;23.29;97749.19;5079121;28;1323;-76
2021/03/10 10:37:09;;;;;;;;;;;;;;;22.62;23.09;97747.56;5078981;28;1897;-76
2021/03/10 10:39:46;;;;;;;;;;;;;;;22.15;23.47;97754.00;5078949;28;1164;-76
2021/03/10 10:42:16;;;;;;;;;;;;;;;21.79;24.06;97755.13;5078773;28;1145;-77
2021/03/10 10:44:42;;;;;;;;;;;;;;;21.57;24.08;97748.53;5063144;28;1217;-77
2021/03/10 10:47:32;;;;;;;;;;;;;;;21.79;23.97;97757.16;5083711;28;680;-76
2021/03/10 10:50:09;;;;;;;;;;;;;;;22.27;23.35;97750.34;5083396;28;732;-77
2021/03/10 10:52:37;;;;;;;;;;;;;;;22.54;22.85;97741.38;5066744;28;1138;-76
2021/03/10 10:55:04;;;;;;;;;;;;;;;22.08;23.51;97743.69;5065712;28;1375;-76
2021/03/10 10:57:30;;;;;;;;;;;;;;;21.99;23.57;97734.28;5083033;28;1968;-76
2021/03/10 10:59:57;;;;;;;;;;;;;;;21.59;24.19;97740.38;5082649;28;1184;-76
2021/03/10 11:02:24;;;;;;;;;;;;;;;22.05;23.50;97733.25;5083175;28;634;-76
2021/03/10 11:04:56;;;;;;;;;;;;;;;22.31;23.19;97728.34;5082669;28;935;-76
2021/03/10 11:07:24;;;;;;;;;;;;;;;22.48;23.19;97731.03;5082840;28;1278;-76
2021/03/10 11:09:53;;;;;;;;;;;;;;;22.00;23.34;97730.97;5082416;28;1254;-76
2021/03/10 11:12:21;;;;;;;;;;;;;;;21.98;23.65;97722.16;5082238;28;1238;-76
2021/03/10 11:14:53;;;;;;;;;;;;;;;21.81;24.01;97724.31;5082455;28;1105;-76
2021/03/10 11:17:37;;;;;;;;;;;;;;;22.14;23.72;97728.97;5082053;28;1987;-76
2021/03/10 11:20:05;;;;;;;;;;;;;;;22.51;22.96;97735.81;5082112;28;1460;-76
2021/03/10 11:22:32;;;;;;;;;;;;;;;22.58;23.11;97729.88;5082179;28;1583;-76
2021/03/10 11:24:57;;;;;;;;;;;;;;;22.31;23.28;97710.56;5082567;28;939;-76
2021/03/10 11:27:24;;;;;;;;;;;;;;;21.94;23.79;97703.69;5082214;28;1250;-76
2021/03/10 11:29:52;;;;;;;;;;;;;;;21.75;23.98;97703.44;5065788;28;1173;-77
2021/03/10 11:32:18;;;;;;;;;;;;;;;21.74;24.04;97703.91;5081802;28;842;-76
2021/03/10 11:34:44;;;;;;;;;;;;;;;21.52;24.52;97696.09;5082804;28;654;-76
2021/03/10 11:37:11;;;;;;;;;;;;;;;21.65;23.95;97693.25;5065611;28;1377;-76
2021/03/10 11:39:37;;;;;;;;;;;;;;;21.74;24.28;97684.88;5081780;28;1287;-77
2021/03/10 11:42:03;;;;;;;;;;;;;;;22.12;23.87;97692.56;5081804;28;1421;-76
2021/03/10 11:44:29;;;;;;;;;;;;;;;22.41;22.98;97691.59;5082277;28;926;-75
2021/03/10 11:47:00;;;;;;;;;;;;;;;22.66;22.88;97696.41;5083414;28;654;-75
2021/03/10 11:49:27;;;;;;;;;;;;;;;22.22;23.71;97691.41;5081800;28;1261;-75
2021/03/10 11:51:52;;;;;;;;;;;;;;;21.74;24.80;97687.72;5081581;28;1272;-74
2021/03/10 11:54:18;;;;;;;;;;;;;;;21.89;24.31;97684.44;5081582;28;1150;-76
2021/03/10 11:56:45;;;;;;;;;;;;;;;21.88;24.80;97694.19;5082111;28;1269;-79
2021/03/10 11:59:11;;;;;;;;;;;;;;;22.47;24.12;97698.28;5084129;28;1897;-82
2021/03/10 12:01:45;;;;;;;;;;;;;;;22.36;24.30;97690.16;5101090;28;1190;-84
2021/03/10 12:04:13;;;;;;;;;;;;;;;22.66;24.31;97693.56;5103789;28;1315;-85
2021/03/10 12:06:47;;;;;;;;;;;;;;;22.22;24.90;97684.97;5105128;28;1204;-83
2021/03/10 12:09:14;;;;;;;;;;;;;;;22.63;24.24;97687.53;5123245;28;1045;-85
2021/03/10 12:11:39;;;;;;;;;;;;;;;22.28;25.11;97671.81;5088880;28;1193;-85
2021/03/10 12:14:05;;;;;;;;;;;;;;;21.97;25.37;97675.25;5089626;28;1275;-85
2021/03/10 12:16:30;;;;;;;;;;;;;;;22.60;24.41;97665.00;5089620;28;1264;-80
2021/03/10 12:18:56;;;;;;;;;;;;;;;22.27;25.16;97654.00;5063072;28;1956;-79
2021/03/10 12:21:22;;;;;;;;;;;;;;;21.93;25.61;97651.13;5062321;28;1360;-78
2021/03/10 12:23:48;;;;;;;;;;;;;;;22.53;24.48;97642.56;5062499;28;1074;-79
2021/03/10 12:26:13;;;;;;;;;;;;;;;22.71;24.48;97650.44;5063238;28;799;-78
2021/03/10 12:28:39;;;;;;;;;;;;;;;22.98;23.81;97644.19;5095040;28;969;-78
2021/03/10 12:31:05;;;;;;;;;;;;;;;22.56;24.71;97636.78;5063437;28;651;-78
2021/03/10 12:33:31;;;;;;;;;;;;;;;22.64;24.48;97634.47;5062017;28;600;-75
2021/03/10 12:35:56;;;;;;;;;;;;;;;22.21;25.30;97638.81;5061627;28;611;-74
2021/03/10 12:38:21;;;;;;;;;;;;;;;22.57;24.78;97626.22;5060755;28;1914;-74
2021/03/10 12:40:47;;;;;;;;;;;;;;;22.30;24.93;97630.41;5060933;28;824;-73
2021/03/10 12:43:12;;;;;;;;;;;;;;;22.35;25.37;97623.38;5061005;28;864;-73
2021/03/10 12:45:38;;;;;;;;;;;;;;;21.88;26.13;97603.53;5061012;28;667;-74
2021/03/10 12:48:04;;;;;;;;;;;;;;;22.18;25.42;97611.41;5061589;28;645;-73
2021/03/10 12:50:30;;;;;;;;;;;;;;;22.11;26.00;97617.31;5060970;28;713;-73
2021/03/10 12:52:56;;;;;;;;;;;;;;;21.90;26.49;97606.69;5060842;28;880;-73
2021/03/10 12:55:21;;;;;;;;;;;;;;;22.12;25.99;97607.56;5060955;28;861;-74
2021/03/10 12:57:47;;;;;;;;;;;;;;;22.21;25.88;97599.16;5060667;28;1975;-74
2021/03/10 13:00:13;;;;;;;;;;;;;;;21.96;26.19;97602.81;5060692;28;699;-76
2021/03/10 13:02:38;;;;;;;;;;;;;;;22.65;25.14;97604.88;5060973;28;610;-75
2021/03/10 13:05:04;;;;;;;;;;;;;;;22.20;25.61;97591.13;5060870;28;638;-79